Time;durP1;ratioP1;P1;durP2;ratioP2;P2;SDS_P1;SDS_P2;PMS_P1;PMS_P2;Temp;Humidity;BMP_temperature;BMP_pressure;BME280_temperature;BME280_humidity;BME280_pressure;Samples;Min_cycle;Max_cycle;Signal;HPM_P1;HPM_P2
2022/06/24 00:00:53;;;;;;;2.10;1.55;;;21.60;81.50;;;;;;4880045;29;20056;-70
2022/06/24 00:03:19;;;;;;;1.77;1.67;;;21.50;80.70;;;;;;4879446;29;20049;-69
2022/06/24 00:05:48;;;;;;;2.40;1.40;;;21.50;80.60;;;;;;4880317;29;20048;-70
2022/06/24 00:08:15;;;;;;;1.45;1.35;;;21.50;80.70;;;;;;4879386;29;20049;-70
2022/06/24 00:10:43;;;;;;;2.83;1.60;;;21.40;81.20;;;;;;4880243;29;20083;-70
2022/06/24 00:13:09;;;;;;;3.58;1.60;;;21.40;82.20;;;;;;4879533;29;20060;-70
2022/06/24 00:15:36;;;;;;;2.30;1.70;;;21.40;82.60;;;;;;4879750;29;20474;-70
2022/06/24 00:18:16;;;;;;;3.42;1.75;;;21.40;82.30;;;;;;4879416;29;20061;-70
2022/06/24 00:20:43;;;;;;;3.20;1.75;;;21.40;83.30;;;;;;4878806;29;20416;-69
2022/06/24 00:23:09;;;;;;;1.75;1.42;;;21.30;82.70;;;;;;4879584;29;20167;-69
2022/06/24 00:25:38;;;;;;;3.00;1.73;;;21.30;82.80;;;;;;4879884;29;20092;-70
2022/06/24 00:28:07;;;;;;;1.58;1.48;;;21.30;82.90;;;;;;4879357;29;20049;-70
2022/06/24 00:30:37;;;;;;;2.22;1.92;;;21.30;82.30;;;;;;4879314;29;20409;-69
2022/06/24 00:33:20;;;;;;;2.25;1.55;;;21.30;82.10;;;;;;4877853;29;20489;-70
2022/06/24 00:35:53;;;;;;;1.90;1.48;;;21.20;81.30;;;;;;4879729;29;20056;-69
2022/06/24 00:38:38;;;;;;;1.92;1.73;;;21.20;81.10;;;;;;4880336;29;20149;-70
2022/06/24 00:41:05;;;;;;;2.10;1.60;;;21.20;81.90;;;;;;4879181;29;20132;-70
2022/06/24 00:43:42;;;;;;;1.55;1.30;;;21.20;82.60;;;;;;4879009;29;20041;-70
2022/06/24 00:46:23;;;;;;;1.98;1.60;;;21.10;82.60;;;;;;4878162;29;20131;-70
2022/06/24 00:48:51;;;;;;;3.80;1.60;;;21.10;83.40;;;;;;4879013;29;20412;-70
2022/06/24 00:51:19;;;;;;;1.70;1.60;;;21.10;84.10;;;;;;4879559;29;20049;-70
2022/06/24 00:53:48;;;;;;;1.60;1.40;;;21.00;85.10;;;;;;4879511;29;20136;-70
2022/06/24 00:56:16;;;;;;;1.75;1.65;;;21.00;84.30;;;;;;4879232;29;20096;-70
2022/06/24 00:58:53;;;;;;;3.83;2.00;;;20.90;85.90;;;;;;4878900;29;20104;-70
2022/06/24 01:01:28;;;;;;;2.97;1.75;;;20.90;86.50;;;;;;4881077;29;20508;-70
2022/06/24 01:03:56;;;;;;;2.78;1.85;;;20.80;86.90;;;;;;4882582;29;20071;-70
2022/06/24 01:06:23;;;;;;;2.55;1.85;;;20.70;87.20;;;;;;4882152;29;20097;-70
2022/06/24 01:08:49;;;;;;;2.13;1.83;;;20.70;88.40;;;;;;4845225;29;1095903;-70
2022/06/24 01:11:26;;;;;;;1.92;1.83;;;20.70;88.80;;;;;;4883672;29;20049;-70
2022/06/24 01:13:53;;;;;;;3.28;2.05;;;20.60;88.70;;;;;;4883890;29;20055;-70
2022/06/24 01:16:23;;;;;;;2.17;1.83;;;20.50;88.60;;;;;;4883348;29;20049;-70
2022/06/24 01:18:53;;;;;;;2.20;2.00;;;20.50;89.00;;;;;;4883272;29;20101;-70
2022/06/24 01:21:51;;;;;;;3.95;1.85;;;20.40;89.40;;;;;;4883746;29;20502;-70
2022/06/24 01:24:22;;;;;;;2.95;2.25;;;20.40;89.30;;;;;;4882655;29;20057;-70
2022/06/24 01:26:50;;;;;;;2.75;1.60;;;20.40;89.00;;;;;;4881940;29;20556;-70
2022/06/24 01:29:16;;;;;;;3.65;1.80;;;20.40;88.80;;;;;;4883074;29;20053;-70
2022/06/24 01:31:43;;;;;;;4.78;2.40;;;20.40;89.40;;;;;;4882734;29;20549;-70
2022/06/24 01:34:09;;;;;;;3.30;1.70;;;20.50;88.30;;;;;;4882057;29;20136;-70
2022/06/24 01:36:35;;;;;;;2.92;2.00;;;20.40;88.30;;;;;;4881934;29;20392;-70
2022/06/24 01:39:03;;;;;;;2.80;1.88;;;20.40;87.50;;;;;;4882918;29;20144;-70
2022/06/24 01:41:29;;;;;;;3.72;1.80;;;20.40;86.50;;;;;;4883367;29;20056;-70
2022/06/24 01:43:55;;;;;;;3.30;2.05;;;20.50;85.60;;;;;;4882759;29;20075;-70
2022/06/24 01:46:20;;;;;;;3.22;1.98;;;20.50;85.00;;;;;;4883047;29;20056;-70
2022/06/24 01:48:46;;;;;;;2.47;2.28;;;20.50;85.20;;;;;;4883268;29;20363;-70
2022/06/24 01:51:14;;;;;;;3.38;2.25;;;20.50;85.50;;;;;;4882679;29;20056;-70
2022/06/24 01:53:40;;;;;;;2.28;2.10;;;20.60;84.80;;;;;;4883152;29;20053;-70
2022/06/24 01:56:06;;;;;;;3.65;2.10;;;20.60;84.20;;;;;;4882598;29;20108;-69
2022/06/24 01:58:31;;;;;;;3.53;2.20;;;20.60;83.80;;;;;;4882534;29;20056;-70
2022/06/24 02:00:57;;;;;;;2.47;2.17;;;20.60;83.70;;;;;;4881412;29;20161;-70
2022/06/24 02:03:23;;;;;;;3.22;1.98;;;20.60;83.50;;;;;;4882955;29;20489;-69
2022/06/24 02:05:51;;;;;;;3.38;2.33;;;20.60;83.10;;;;;;4882385;29;20053;-69
2022/06/24 02:08:16;;;;;;;4.30;2.20;;;20.60;83.10;;;;;;4882418;29;20064;-69
2022/06/24 02:13:26;;;;;;;3.03;2.22;;;20.60;82.90;;;;;;4882869;29;20088;-70
2022/06/24 02:15:58;;;;;;;4.40;2.15;;;20.70;82.70;;;;;;4882244;29;20053;-69
2022/06/24 02:18:25;;;;;;;2.53;2.23;;;20.70;82.60;;;;;;4882255;29;20398;-70
2022/06/24 02:20:51;;;;;;;3.88;2.33;;;20.70;82.60;;;;;;4882200;29;20049;-69
2022/06/24 02:23:20;;;;;;;2.35;2.15;;;20.70;82.50;;;;;;4882550;29;20048;-69
2022/06/24 02:25:47;;;;;;;4.13;2.53;;;20.60;82.50;;;;;;4882092;29;20523;-70
2022/06/24 02:28:14;;;;;;;3.30;2.35;;;20.60;82.80;;;;;;4882840;29;20394;-69
2022/06/24 02:30:40;;;;;;;2.78;2.38;;;20.70;82.50;;;;;;4881713;29;20494;-70
2022/06/24 02:33:07;;;;;;;2.47;2.30;;;20.60;82.40;;;;;;4881986;29;20131;-70
2022/06/24 02:35:33;;;;;;;2.72;2.03;;;20.60;82.70;;;;;;4881976;29;20061;-70
2022/06/24 02:37:59;;;;;;;4.72;2.50;;;20.60;82.60;;;;;;4881086;29;20117;-69
2022/06/24 02:43:19;;;;;;;3.58;2.65;;;20.60;83.10;;;;;;4882600;29;20049;-69
2022/06/24 02:45:46;;;;;;;3.25;2.50;;;20.60;83.30;;;;;;4880632;29;20049;-70
2022/06/24 02:48:14;;;;;;;2.50;2.13;;;20.60;83.40;;;;;;4881684;29;20061;-69
2022/06/24 02:50:48;;;;;;;2.85;2.15;;;20.50;83.10;;;;;;4881649;29;20405;-70
2022/06/24 02:53:15;;;;;;;3.00;2.70;;;20.50;83.10;;;;;;4881554;29;20049;-69
2022/06/24 02:55:43;;;;;;;3.53;2.78;;;20.50;83.40;;;;;;4880605;29;20478;-69
2022/06/24 02:58:09;;;;;;;2.85;2.30;;;20.50;83.50;;;;;;4880835;29;20100;-69
2022/06/24 03:00:35;;;;;;;2.47;2.20;;;20.40;84.30;;;;;;4881456;29;20045;-70
2022/06/24 03:03:01;;;;;;;2.50;2.30;;;20.40;84.90;;;;;;4881324;29;20081;-70
2022/06/24 03:05:26;;;;;;;3.35;2.53;;;20.30;84.80;;;;;;4882167;29;20041;-69
2022/06/24 03:07:53;;;;;;;3.78;2.53;;;20.30;84.90;;;;;;4882307;29;20092;-68
2022/06/24 03:10:19;;;;;;;3.58;2.40;;;20.30;85.40;;;;;;4881748;29;20144;-70
2022/06/24 03:12:45;;;;;;;2.72;2.42;;;20.30;86.10;;;;;;4880323;29;20064;-70
2022/06/24 03:15:11;;;;;;;2.75;2.13;;;20.20;87.30;;;;;;4881278;29;20060;-69
2022/06/24 03:17:37;;;;;;;4.13;2.50;;;20.20;89.10;;;;;;4880849;29;20409;-69
2022/06/24 03:20:07;;;;;;;3.22;2.40;;;20.10;89.70;;;;;;4879960;29;20135;-70
2022/06/24 03:22:33;;;;;;;4.75;2.63;;;20.00;89.90;;;;;;4880832;29;20048;-70
2022/06/24 03:24:59;;;;;;;3.05;2.10;;;20.00;89.90;;;;;;4880086;29;20409;-70
2022/06/24 03:27:28;;;;;;;3.35;2.60;;;20.00;90.10;;;;;;4880748;29;20053;-70
2022/06/24 03:29:54;;;;;;;4.90;2.40;;;19.90;90.20;;;;;;4880917;29;20049;-70
2022/06/24 03:32:20;;;;;;;4.85;2.60;;;19.90;90.70;;;;;;4880936;29;20111;-70
2022/06/24 03:34:46;;;;;;;3.22;2.55;;;19.90;90.90;;;;;;4881606;29;20498;-70
2022/06/24 03:37:12;;;;;;;3.10;2.30;;;19.90;90.80;;;;;;4880557;29;20053;-70
2022/06/24 03:39:38;;;;;;;4.18;2.33;;;19.90;90.60;;;;;;4879623;29;20053;-70
2022/06/24 03:42:04;;;;;;;2.80;2.38;;;19.90;90.60;;;;;;4879568;29;20085;-70
2022/06/24 03:44:31;;;;;;;2.60;2.40;;;20.00;90.50;;;;;;4880511;29;20517;-70
2022/06/24 03:46:57;;;;;;;5.60;2.45;;;20.00;90.50;;;;;;4880643;29;20486;-70
2022/06/24 03:49:22;;;;;;;3.85;2.13;;;20.00;90.40;;;;;;4880574;29;20055;-70
2022/06/24 03:51:48;;;;;;;2.78;2.42;;;20.00;90.40;;;;;;4880511;29;20052;-70
2022/06/24 03:54:14;;;;;;;2.70;2.38;;;20.00;90.40;;;;;;4880196;29;20053;-70
2022/06/24 03:56:40;;;;;;;2.72;2.53;;;20.00;90.80;;;;;;4879263;29;20082;-70
2022/06/24 03:59:06;;;;;;;3.67;2.72;;;20.00;91.00;;;;;;4864006;29;20049;-70
2022/06/24 04:01:31;;;;;;;2.85;2.65;;;20.00;91.50;;;;;;4880429;29;20061;-70
2022/06/24 04:03:57;;;;;;;3.55;2.55;;;20.00;91.80;;;;;;4880254;29;20367;-70
2022/06/24 04:06:23;;;;;;;4.15;2.80;;;20.00;92.30;;;;;;4880247;29;20049;-70
2022/06/24 04:08:49;;;;;;;3.08;2.72;;;20.00;92.80;;;;;;4880089;29;20045;-69
2022/06/24 04:11:16;;;;;;;2.75;2.55;;;20.00;93.00;;;;;;4880590;29;20057;-70
2022/06/24 04:13:42;;;;;;;3.53;2.78;;;19.90;93.20;;;;;;4880153;29;20063;-70
2022/06/24 04:16:08;;;;;;;2.67;2.47;;;19.90;93.80;;;;;;4880191;29;20081;-70
2022/06/24 04:18:34;;;;;;;2.90;2.60;;;19.90;94.60;;;;;;4879875;29;20041;-70
2022/06/24 04:21:00;;;;;;;2.55;2.35;;;19.90;95.00;;;;;;4880074;29;20057;-70
2022/06/24 04:23:26;;;;;;;2.97;2.65;;;19.90;95.20;;;;;;4880012;29;20124;-70
2022/06/24 04:25:52;;;;;;;2.75;2.38;;;19.90;95.70;;;;;;4880034;29;20097;-70
2022/06/24 04:28:18;;;;;;;2.97;2.55;;;19.90;95.70;;;;;;4879343;29;20052;-70
2022/06/24 04:30:44;;;;;;;2.90;2.58;;;19.80;95.80;;;;;;4880809;29;20386;-70
2022/06/24 04:33:10;;;;;;;2.67;2.30;;;19.90;96.20;;;;;;4880003;29;20127;-70
2022/06/24 04:35:36;;;;;;;3.58;2.42;;;19.90;96.50;;;;;;4880145;29;20128;-70
2022/06/24 04:38:02;;;;;;;4.28;2.58;;;19.90;97.00;;;;;;4879865;29;20139;-70
2022/06/24 04:40:28;;;;;;;3.85;3.00;;;19.90;97.00;;;;;;4879911;29;20056;-70
2022/06/24 04:42:54;;;;;;;5.45;2.92;;;19.90;97.90;;;;;;4879800;29;20049;-70
2022/06/24 04:45:19;;;;;;;3.83;2.90;;;19.90;98.20;;;;;;4879810;29;20059;-70
2022/06/24 04:47:45;;;;;;;3.33;2.67;;;19.90;97.80;;;;;;4879344;29;20052;-69
2022/06/24 04:50:11;;;;;;;5.13;3.13;;;19.90;97.80;;;;;;4878917;29;20056;-69
2022/06/24 04:52:38;;;;;;;5.18;3.17;;;19.90;97.60;;;;;;4879516;29;20401;-69
2022/06/24 04:55:06;;;;;;;4.60;2.92;;;19.90;98.00;;;;;;4879726;29;20057;-69
2022/06/24 04:57:32;;;;;;;3.10;2.80;;;20.00;97.90;;;;;;4879711;29;20053;-69
2022/06/24 04:59:57;;;;;;;4.72;2.53;;;20.00;97.90;;;;;;4879793;29;20056;-69
2022/06/24 05:02:23;;;;;;;4.13;3.33;;;20.10;97.80;;;;;;4879937;29;20045;-69
2022/06/24 05:04:49;;;;;;;3.63;3.28;;;20.10;97.00;;;;;;4878554;29;20045;-69
2022/06/24 05:07:14;;;;;;;3.22;2.38;;;20.10;96.80;;;;;;4879438;29;20075;-69
2022/06/24 05:09:40;;;;;;;4.03;2.85;;;20.20;96.40;;;;;;4878872;29;20061;-69
2022/06/24 05:12:06;;;;;;;3.72;2.65;;;20.20;95.50;;;;;;4879625;29;20061;-70
2022/06/24 05:14:33;;;;;;;5.28;2.92;;;20.30;95.10;;;;;;4879608;29;20077;-70
2022/06/24 05:16:59;;;;;;;3.78;3.05;;;20.40;95.10;;;;;;4879590;29;20053;-70
2022/06/24 05:19:25;;;;;;;3.88;3.08;;;20.40;95.20;;;;;;4879557;29;20045;-69
2022/06/24 05:21:51;;;;;;;3.92;2.85;;;20.50;95.00;;;;;;4879520;29;20049;-70
2022/06/24 05:24:17;;;;;;;3.15;2.70;;;20.50;94.60;;;;;;4879959;29;20048;-69
2022/06/24 05:26:44;;;;;;;3.45;2.92;;;20.50;94.60;;;;;;4880004;29;20057;-70
2022/06/24 05:29:10;;;;;;;2.97;2.78;;;20.50;94.40;;;;;;4878535;29;20132;-69
2022/06/24 05:31:36;;;;;;;5.88;3.50;;;20.60;94.90;;;;;;4879464;29;20462;-70
2022/06/24 05:34:02;;;;;;;3.28;2.97;;;20.50;95.40;;;;;;4879420;29;20053;-70
2022/06/24 05:36:28;;;;;;;3.38;3.00;;;20.50;95.10;;;;;;4878419;29;20078;-70
2022/06/24 05:38:54;;;;;;;3.67;3.10;;;20.50;95.40;;;;;;4863310;29;20049;-69
2022/06/24 05:41:19;;;;;;;3.60;3.33;;;20.50;96.00;;;;;;4878191;29;20057;-70
2022/06/24 05:43:46;;;;;;;5.38;3.08;;;20.50;96.10;;;;;;4879289;29;20049;-70
2022/06/24 05:46:12;;;;;;;3.58;3.22;;;20.50;96.00;;;;;;4879984;29;20192;-69
2022/06/24 05:48:39;;;;;;;4.05;3.70;;;20.50;96.00;;;;;;4882756;29;20156;-69
2022/06/24 05:51:08;;;;;;;3.53;3.20;;;20.50;96.40;;;;;;4882704;29;20193;-70
2022/06/24 05:56:19;;;;;;;3.80;3.50;;;20.50;96.00;;;;;;4883476;29;20124;-69
2022/06/24 05:58:45;;;;;;;3.28;3.05;;;20.60;95.80;;;;;;4882588;29;20132;-69
2022/06/24 06:01:11;;;;;;;4.57;3.40;;;20.60;95.50;;;;;;4881594;29;20136;-69
2022/06/24 06:03:37;;;;;;;5.47;3.90;;;20.60;95.20;;;;;;4882443;29;20041;-70
2022/06/24 06:06:03;;;;;;;8.38;4.03;;;20.60;94.90;;;;;;4881404;29;20057;-70
2022/06/24 06:08:29;;;;;;;14.82;7.13;;;20.60;95.10;;;;;;4881767;29;20053;-68
2022/06/24 06:10:54;;;;;;;20.88;8.38;;;20.50;97.40;;;;;;4881797;29;20162;-65
2022/06/24 06:13:21;;;;;;;17.45;8.27;;;20.40;99.80;;;;;;4882325;29;20052;-65
2022/06/24 06:15:46;;;;;;;20.70;10.18;;;20.00;99.90;;;;;;4882259;29;20052;-64
2022/06/24 06:18:12;;;;;;;20.17;11.32;;;19.60;99.90;;;;;;4882782;29;20053;-63
2022/06/24 06:20:38;;;;;;;24.90;14.02;;;19.10;99.90;;;;;;4882193;29;20045;-63
2022/06/24 06:23:04;;;;;;;13.73;11.15;;;18.80;99.90;;;;;;4882162;29;20100;-63
2022/06/24 06:25:31;;;;;;;15.98;11.45;;;18.60;99.90;;;;;;4882145;29;20056;-65
2022/06/24 06:27:57;;;;;;;21.20;14.20;;;18.40;99.90;;;;;;4880971;29;20127;-64
2022/06/24 06:30:23;;;;;;;27.85;17.67;;;18.20;99.90;;;;;;4882554;29;20132;-64
2022/06/24 06:32:48;;;;;;;19.70;14.40;;;18.00;99.90;;;;;;4865599;29;20136;-64
2022/06/24 06:35:14;;;;;;;16.27;12.55;;;17.90;99.90;;;;;;4881869;29;20053;-64
2022/06/24 06:37:40;;;;;;;13.25;10.60;;;17.80;99.90;;;;;;4897318;29;20088;-64
2022/06/24 06:40:06;;;;;;;16.70;13.15;;;17.80;99.90;;;;;;4882658;29;20470;-64
2022/06/24 06:42:32;;;;;;;13.13;11.02;;;17.70;99.90;;;;;;4881756;29;20607;-65
2022/06/24 06:45:00;;;;;;;17.30;13.73;;;17.60;99.90;;;;;;4882028;29;20135;-65
2022/06/24 06:47:26;;;;;;;12.35;10.93;;;17.50;99.90;;;;;;4881768;29;20049;-65
2022/06/24 06:49:52;;;;;;;13.27;10.13;;;17.50;99.90;;;;;;4881646;29;20128;-65
2022/06/24 06:52:17;;;;;;;12.02;9.93;;;17.40;99.90;;;;;;4881388;29;20053;-65
2022/06/24 06:54:43;;;;;;;15.35;11.07;;;17.40;99.90;;;;;;4880342;29;20045;-65
2022/06/24 06:57:08;;;;;;;20.88;16.02;;;17.40;99.90;;;;;;4880978;29;20053;-65
2022/06/24 06:59:34;;;;;;;26.85;18.02;;;17.40;99.90;;;;;;4881000;29;20084;-65
2022/06/24 07:02:00;;;;;;;20.52;16.17;;;17.50;99.90;;;;;;4881546;29;20048;-65
2022/06/24 07:04:25;;;;;;;16.80;13.88;;;17.50;99.90;;;;;;4881925;29;20209;-65
2022/06/24 07:06:53;;;;;;;18.27;15.10;;;17.60;99.90;;;;;;4880330;29;20059;-65
2022/06/24 07:09:19;;;;;;;24.92;17.27;;;17.70;99.90;;;;;;4881197;29;20140;-65
2022/06/24 07:11:45;;;;;;;17.45;14.48;;;17.80;99.90;;;;;;4881326;29;20528;-65
2022/06/24 07:14:10;;;;;;;24.10;19.38;;;17.90;99.90;;;;;;4881316;29;20045;-65
2022/06/24 07:16:36;;;;;;;19.13;15.57;;;17.90;99.90;;;;;;4881254;29;20408;-66
2022/06/24 07:19:02;;;;;;;22.08;19.20;;;18.10;99.90;;;;;;4880998;29;20088;-66
2022/06/24 07:21:28;;;;;;;30.58;23.13;;;18.10;99.90;;;;;;4880166;29;20041;-66
2022/06/24 07:23:53;;;;;;;19.63;16.60;;;18.20;99.90;;;;;;4865164;29;20049;-66
2022/06/24 07:26:19;;;;;;;19.85;15.73;;;18.30;99.90;;;;;;4881760;29;20053;-66
2022/06/24 07:28:45;;;;;;;18.30;16.38;;;18.40;99.90;;;;;;4881595;29;20053;-66
2022/06/24 07:31:18;;;;;;;21.60;15.15;;;18.50;99.90;;;;;;4881091;29;20174;-66
2022/06/24 07:33:45;;;;;;;18.27;15.73;;;18.50;99.90;;;;;;4880311;29;20545;-66
2022/06/24 07:36:10;;;;;;;18.55;14.40;;;18.60;99.90;;;;;;4880945;29;20520;-66
2022/06/24 07:38:36;;;;;;;17.77;13.55;;;18.70;99.90;;;;;;4879794;29;20053;-67
2022/06/24 07:41:02;;;;;;;15.25;13.40;;;18.70;99.90;;;;;;4880909;29;20057;-67
2022/06/24 07:43:28;;;;;;;20.67;15.80;;;18.70;99.90;;;;;;4879677;29;20041;-66
2022/06/24 07:45:55;;;;;;;19.55;14.18;;;18.80;99.90;;;;;;4879926;29;20161;-66
2022/06/24 07:48:21;;;;;;;18.50;15.43;;;18.80;99.90;;;;;;4880800;29;20049;-67
2022/06/24 07:50:47;;;;;;;25.60;20.05;;;18.90;99.90;;;;;;4880802;29;20053;-66
2022/06/24 07:53:12;;;;;;;22.05;18.25;;;19.00;99.90;;;;;;4881147;29;20493;-66
2022/06/24 07:58:22;;;;;;;15.98;14.07;;;19.00;99.90;;;;;;4881261;29;20064;-70
2022/06/24 08:00:48;;;;;;;16.10;13.25;;;19.00;99.90;;;;;;4880605;29;20053;-66
2022/06/24 08:03:15;;;;;;;16.75;14.10;;;19.00;99.90;;;;;;4881072;29;20041;-68
2022/06/24 08:05:41;;;;;;;17.38;14.20;;;19.00;99.90;;;;;;4879416;29;20061;-69
2022/06/24 08:08:06;;;;;;;15.65;14.05;;;19.10;99.90;;;;;;4880974;29;20077;-69
2022/06/24 08:10:32;;;;;;;17.55;13.55;;;19.20;99.90;;;;;;4880501;29;20065;-69
2022/06/24 08:12:58;;;;;;;19.10;14.18;;;19.30;99.90;;;;;;4880679;29;20040;-69
2022/06/24 08:15:24;;;;;;;19.48;14.20;;;19.40;99.90;;;;;;4879670;29;20060;-70
2022/06/24 08:17:50;;;;;;;18.60;14.07;;;19.50;99.90;;;;;;4880402;29;20053;-70
2022/06/24 08:20:16;;;;;;;16.52;14.10;;;19.50;99.90;;;;;;4880294;29;20084;-70
2022/06/24 08:22:42;;;;;;;15.30;13.73;;;19.50;99.90;;;;;;4880722;29;20045;-70
2022/06/24 08:25:08;;;;;;;18.15;13.63;;;19.50;99.90;;;;;;4880261;29;20052;-69
2022/06/24 08:27:34;;;;;;;20.90;14.10;;;19.50;99.90;;;;;;4879591;29;20371;-70
2022/06/24 08:30:00;;;;;;;23.70;15.50;;;19.50;99.90;;;;;;4879559;29;20082;-71
2022/06/24 08:32:26;;;;;;;16.83;13.00;;;19.50;99.90;;;;;;4880131;29;20048;-71
2022/06/24 08:34:51;;;;;;;14.38;12.77;;;19.50;99.90;;;;;;4879032;29;20413;-70
2022/06/24 08:37:17;;;;;;;18.88;14.65;;;19.50;99.90;;;;;;4879125;29;20125;-69
2022/06/24 08:39:43;;;;;;;17.73;14.00;;;19.50;99.90;;;;;;4878839;29;20493;-70
2022/06/24 08:42:12;;;;;;;18.48;13.70;;;19.50;99.90;;;;;;4879922;29;20045;-69
2022/06/24 08:44:38;;;;;;;16.30;13.93;;;19.60;99.90;;;;;;4879973;29;20135;-70
2022/06/24 08:47:04;;;;;;;19.08;13.55;;;19.60;99.90;;;;;;4878846;29;20101;-70
2022/06/24 08:49:33;;;;;;;23.42;16.42;;;19.60;99.90;;;;;;4879942;29;20049;-71
2022/06/24 08:52:00;;;;;;;16.70;13.75;;;19.60;99.90;;;;;;4879923;29;20044;-70
2022/06/24 08:54:30;;;;;;;17.70;15.43;;;19.70;99.90;;;;;;4879913;29;20088;-71
2022/06/24 08:56:57;;;;;;;19.13;16.38;;;19.70;99.90;;;;;;4879007;29;20053;-72
2022/06/24 08:59:23;;;;;;;18.45;14.77;;;19.70;99.90;;;;;;4879847;29;20053;-71
2022/06/24 09:01:49;;;;;;;18.52;13.20;;;19.80;99.90;;;;;;4878599;29;20116;-70
2022/06/24 09:04:15;;;;;;;23.08;16.25;;;19.80;99.90;;;;;;4863088;29;20053;-70
2022/06/24 09:06:41;;;;;;;20.13;16.02;;;19.80;99.90;;;;;;4880527;29;20050;-71
2022/06/24 09:09:08;;;;;;;20.10;16.38;;;19.80;99.90;;;;;;4879629;29;20056;-70
2022/06/24 09:11:39;;;;;;;16.75;13.32;;;19.80;99.90;;;;;;4878507;29;20053;-68
2022/06/24 09:14:06;;;;;;;17.03;13.57;;;19.80;99.90;;;;;;4879678;29;20052;-68
2022/06/24 09:16:36;;;;;;;16.75;14.20;;;19.80;99.90;;;;;;4879245;29;20052;-68
2022/06/24 09:19:05;;;;;;;18.13;14.90;;;19.80;99.90;;;;;;4878652;29;20053;-68
2022/06/24 09:21:36;;;;;;;18.30;15.40;;;19.80;99.90;;;;;;4880353;29;20052;-67
2022/06/24 09:24:03;;;;;;;20.92;16.65;;;19.90;99.90;;;;;;4882768;29;20045;-67
2022/06/24 09:26:32;;;;;;;19.27;16.20;;;19.90;99.90;;;;;;4882144;29;20045;-68
2022/06/24 09:28:58;;;;;;;21.27;16.17;;;19.90;99.90;;;;;;4881373;29;20057;-67
2022/06/24 09:31:25;;;;;;;22.00;16.30;;;19.90;99.90;;;;;;4881819;29;20060;-67
2022/06/24 09:33:56;;;;;;;21.42;17.35;;;19.90;99.90;;;;;;4882527;29;20049;-67
2022/06/24 09:36:25;;;;;;;18.63;15.52;;;19.90;99.90;;;;;;4881745;29;20109;-67
2022/06/24 09:39:03;;;;;;;16.88;14.27;;;19.90;99.90;;;;;;4882025;29;20490;-67
2022/06/24 09:41:30;;;;;;;16.33;12.40;;;19.90;99.90;;;;;;4883755;29;20053;-66
2022/06/24 09:44:01;;;;;;;12.07;10.85;;;20.00;99.90;;;;;;4882917;29;20401;-66
2022/06/24 09:46:27;;;;;;;14.05;11.77;;;20.00;99.90;;;;;;4882282;29;20049;-66
2022/06/24 09:49:03;;;;;;;14.65;12.75;;;20.00;99.90;;;;;;4882643;29;20045;-65
2022/06/24 09:51:29;;;;;;;14.55;11.68;;;20.00;99.90;;;;;;4883489;29;20052;-65
2022/06/24 09:53:55;;;;;;;14.50;12.52;;;20.00;99.90;;;;;;4866400;29;20446;-66
2022/06/24 09:56:21;;;;;;;19.63;13.40;;;20.00;99.90;;;;;;4882837;29;20045;-65
2022/06/24 10:00:40;;;;;;;18.70;14.10;;;20.00;99.90;;;;;;4882098;29;20084;-65
2022/06/24 10:01:38;;;;;;;17.13;13.93;;;20.00;99.90;;;;;;4882695;29;20148;-65
2022/06/24 10:04:05;;;;;;;19.30;13.55;;;20.10;99.90;;;;;;4881106;29;20486;-66
2022/06/24 10:06:35;;;;;;;18.83;14.18;;;20.10;99.90;;;;;;4882552;29;20108;-66
2022/06/24 10:09:04;;;;;;;17.27;14.82;;;20.10;99.90;;;;;;4882503;29;20057;-66
2022/06/24 10:11:33;;;;;;;18.13;14.80;;;20.10;99.90;;;;;;4882608;29;20056;-66
2022/06/24 10:14:00;;;;;;;18.75;14.82;;;20.10;99.90;;;;;;4881288;29;20053;-66
2022/06/24 10:16:26;;;;;;;18.95;15.38;;;20.10;99.90;;;;;;4882498;29;20450;-66
2022/06/24 10:18:52;;;;;;;14.68;12.20;;;20.10;99.90;;;;;;4883023;29;20056;-66
2022/06/24 10:21:19;;;;;;;17.40;14.23;;;20.10;99.90;;;;;;4882944;29;20392;-66
2022/06/24 10:23:49;;;;;;;16.15;13.00;;;20.10;99.90;;;;;;4882515;29;20056;-66
2022/06/24 10:26:25;;;;;;;17.33;14.93;;;20.10;99.90;;;;;;4882292;29;20105;-66
2022/06/24 10:28:59;;;;;;;17.63;14.50;;;20.20;99.90;;;;;;4882251;29;20045;-67
2022/06/24 10:31:49;;;;;;;15.40;13.82;;;20.20;99.90;;;;;;4882221;29;20504;-66
2022/06/24 10:34:30;;;;;;;17.80;14.18;;;20.30;99.90;;;;;;4882494;29;20041;-67
2022/06/24 10:37:10;;;;;;;17.98;14.25;;;20.30;99.90;;;;;;4881934;29;20061;-66
2022/06/24 10:39:54;;;;;;;21.98;15.88;;;20.30;99.90;;;;;;4882181;29;20064;-67
2022/06/24 10:42:21;;;;;;;15.50;12.65;;;20.30;99.90;;;;;;4882014;29;20059;-66
2022/06/24 10:45:05;;;;;;;18.17;13.27;;;20.30;99.90;;;;;;4882234;29;20076;-66
2022/06/24 10:47:38;;;;;;;14.63;12.80;;;20.30;99.90;;;;;;4882488;29;20045;-66
2022/06/24 10:50:13;;;;;;;17.25;13.77;;;20.30;99.90;;;;;;4882139;29;20049;-66
2022/06/24 10:52:48;;;;;;;14.52;13.02;;;20.20;99.90;;;;;;4882400;29;20045;-66
2022/06/24 10:55:34;;;;;;;8.25;6.28;;;20.20;99.90;;;;;;4881149;29;20057;-67
2022/06/24 10:58:11;;;;;;;7.03;2.08;;;20.10;99.90;;;;;;4881752;29;20053;-65
2022/06/24 11:00:43;;;;;;;8.57;1.30;;;20.10;99.90;;;;;;4881991;29;20053;-65
2022/06/24 11:03:08;;;;;;;1.98;0.47;;;19.80;99.90;;;;;;4881573;29;20045;-67
2022/06/24 11:05:36;;;;;;;7.47;0.80;;;19.60;99.90;;;;;;4881620;29;20060;-64
2022/06/24 11:08:08;;;;;;;3.97;0.65;;;19.30;99.90;;;;;;4881466;29;20521;-64
2022/06/24 11:10:34;;;;;;;3.67;0.60;;;19.00;99.90;;;;;;4882010;29;20477;-64
2022/06/24 11:13:01;;;;;;;0.95;0.30;;;18.80;99.90;;;;;;4881500;29;20310;-64
2022/06/24 11:15:40;;;;;;;3.47;0.77;;;18.60;99.90;;;;;;4881716;29;20049;-64
2022/06/24 11:18:19;;;;;;;4.68;0.70;;;18.50;99.90;;;;;;4881330;29;20132;-64
2022/06/24 11:20:51;;;;;;;2.03;0.50;;;18.40;99.90;;;;;;4880524;29;20450;-65
2022/06/24 11:23:19;;;;;;;3.78;0.60;;;18.40;99.90;;;;;;4881600;29;20371;-65
2022/06/24 11:25:48;;;;;;;1.15;0.38;;;18.30;99.90;;;;;;4882041;29;20136;-65
2022/06/24 11:28:22;;;;;;;1.45;0.30;;;18.30;99.90;;;;;;4881144;29;20049;-65
2022/06/24 11:30:49;;;;;;;0.60;0.30;;;18.30;99.90;;;;;;4880229;29;20088;-65
2022/06/24 11:33:15;;;;;;;1.33;0.40;;;18.20;99.90;;;;;;4881080;29;20048;-65
2022/06/24 11:35:41;;;;;;;2.00;0.50;;;18.20;99.90;;;;;;4880130;29;20132;-65
2022/06/24 11:38:08;;;;;;;1.10;0.40;;;18.20;99.90;;;;;;4881011;29;20052;-65
2022/06/24 11:40:35;;;;;;;1.70;0.50;;;18.10;99.90;;;;;;4880419;29;20057;-65
2022/06/24 11:43:11;;;;;;;3.10;0.60;;;18.10;99.90;;;;;;4880323;29;20410;-66
2022/06/24 11:45:45;;;;;;;2.08;0.50;;;18.10;99.90;;;;;;4879375;29;20140;-65
2022/06/24 11:48:21;;;;;;;3.75;0.80;;;18.10;99.90;;;;;;4879618;29;20413;-65
2022/06/24 11:50:48;;;;;;;5.47;1.40;;;18.10;99.90;;;;;;4879586;29;20053;-65
2022/06/24 11:53:15;;;;;;;4.25;1.20;;;18.10;99.90;;;;;;4879752;29;20061;-65
2022/06/24 11:55:41;;;;;;;3.63;1.63;;;18.10;99.90;;;;;;4878123;29;20068;-65
2022/06/24 11:58:11;;;;;;;4.68;1.90;;;18.10;99.90;;;;;;4879273;29;20131;-65
2022/06/24 12:00:40;;;;;;;2.38;2.17;;;18.10;99.90;;;;;;4878926;29;20092;-65
2022/06/24 12:03:10;;;;;;;4.82;2.90;;;18.10;99.90;;;;;;4879496;29;20045;-65
2022/06/24 12:05:43;;;;;;;5.47;3.50;;;18.00;99.90;;;;;;4878951;29;20379;-65
2022/06/24 12:08:09;;;;;;;4.85;4.03;;;18.00;99.90;;;;;;4879063;29;20053;-65
2022/06/24 12:10:47;;;;;;;6.30;4.40;;;18.00;99.90;;;;;;4880402;29;20109;-65
2022/06/24 12:13:24;;;;;;;6.45;4.80;;;18.00;99.90;;;;;;4879358;29;20045;-65
2022/06/24 12:15:51;;;;;;;4.43;3.17;;;18.00;99.90;;;;;;4879468;29;20496;-67
2022/06/24 12:18:19;;;;;;;2.90;2.17;;;18.10;99.90;;;;;;4879902;29;20048;-65
2022/06/24 12:20:55;;;;;;;3.47;2.30;;;18.00;99.90;;;;;;4879085;29;20132;-65
2022/06/24 12:23:22;;;;;;;3.80;2.40;;;17.90;99.90;;;;;;4879351;29;20088;-65
2022/06/24 12:25:50;;;;;;;5.60;2.25;;;17.90;99.90;;;;;;4879093;29;20055;-65
2022/06/24 12:28:27;;;;;;;4.57;2.50;;;17.90;99.90;;;;;;4862504;29;20045;-65
2022/06/24 12:30:56;;;;;;;3.17;2.70;;;17.80;99.90;;;;;;4878871;29;20103;-65
2022/06/24 12:33:24;;;;;;;2.78;2.38;;;17.80;99.90;;;;;;4878819;29;20565;-65
2022/06/24 12:36:03;;;;;;;4.38;3.33;;;17.80;99.90;;;;;;4879137;29;20041;-65
2022/06/24 12:38:29;;;;;;;4.57;3.72;;;17.90;99.90;;;;;;4880368;29;20064;-65
2022/06/24 12:41:16;;;;;;;6.22;3.50;;;17.90;99.90;;;;;;4879745;29;20393;-65
2022/06/24 12:43:58;;;;;;;3.67;3.00;;;18.00;99.90;;;;;;4879616;29;20053;-65
2022/06/24 12:46:26;;;;;;;;;;;18.00;99.90;;;;;;4879841;29;20124;-65
2022/06/24 12:51:44;;;;;;;4.72;3.50;;;18.10;99.90;;;;;;4879806;29;20057;-66
2022/06/24 12:54:10;;;;;;;3.38;2.67;;;18.10;99.90;;;;;;4879312;29;20045;-65
2022/06/24 12:56:36;;;;;;;2.92;1.98;;;18.20;99.90;;;;;;4883262;29;20084;-66
2022/06/24 12:59:03;;;;;;;2.03;1.70;;;18.20;99.90;;;;;;4882072;29;20111;-65